sensor_id;sensor_type;location;lat;lon;timestamp;pressure;altitude;pressure_sealevel;temperature;humidity
39789;BME280;25478;42.626;23.320;2022-09-09T00:06:57;93382.66;;;15.92;89.98
39789;BME280;25478;42.626;23.320;2022-09-09T00:09:27;93368.81;;;15.77;90.00
39789;BME280;25478;42.626;23.320;2022-09-09T00:18:03;93390.66;;;15.88;90.36
39789;BME280;25478;42.626;23.320;2022-09-09T00:20:32;93394.88;;;15.86;90.29
39789;BME280;25478;42.626;23.320;2022-09-09T00:23:24;93379.03;;;15.79;90.33
39789;BME280;25478;42.626;23.320;2022-09-09T00:26:13;93379.44;;;15.77;90.07
39789;BME280;25478;42.626;23.320;2022-09-09T00:28:52;93376.09;;;15.73;90.41
39789;BME280;25478;42.626;23.320;2022-09-09T00:31:23;93361.69;;;15.70;90.86
39789;BME280;25478;42.626;23.320;2022-09-09T00:33:52;93343.66;;;15.55;91.06
39789;BME280;25478;42.626;23.320;2022-09-09T00:36:21;93365.16;;;15.67;91.16
39789;BME280;25478;42.626;23.320;2022-09-09T00:38:59;93359.09;;;15.67;91.10
39789;BME280;25478;42.626;23.320;2022-09-09T00:47:16;93342.09;;;15.64;91.53
39789;BME280;25478;42.626;23.320;2022-09-09T00:50:00;93348.50;;;15.63;91.48
39789;BME280;25478;42.626;23.320;2022-09-09T00:55:28;93345.09;;;15.63;91.41
39789;BME280;25478;42.626;23.320;2022-09-09T00:57:59;93341.31;;;15.64;91.55
39789;BME280;25478;42.626;23.320;2022-09-09T01:00:31;93330.06;;;15.53;91.74
39789;BME280;25478;42.626;23.320;2022-09-09T01:03:39;93342.84;;;15.65;91.55
39789;BME280;25478;42.626;23.320;2022-09-09T01:06:29;93348.50;;;15.63;91.55
39789;BME280;25478;42.626;23.320;2022-09-09T01:12:02;93327.06;;;15.51;91.45
39789;BME280;25478;42.626;23.320;2022-09-09T01:17:32;93347.75;;;15.63;91.68
39789;BME280;25478;42.626;23.320;2022-09-09T01:28:32;93340.72;;;15.49;92.48
39789;BME280;25478;42.626;23.320;2022-09-09T01:31:06;93338.81;;;15.49;92.48
39789;BME280;25478;42.626;23.320;2022-09-09T01:33:40;93343.38;;;15.49;92.65
39789;BME280;25478;42.626;23.320;2022-09-09T01:38:42;93349.81;;;15.48;92.24
39789;BME280;25478;42.626;23.320;2022-09-09T01:41:07;93355.91;;;15.45;92.30
39789;BME280;25478;42.626;23.320;2022-09-09T01:43:42;93363.13;;;15.44;92.48
39789;BME280;25478;42.626;23.320;2022-09-09T01:46:07;93362.38;;;15.44;92.36
39789;BME280;25478;42.626;23.320;2022-09-09T01:48:35;93358.97;;;15.43;92.41
39789;BME280;25478;42.626;23.320;2022-09-09T01:51:03;93359.72;;;15.44;92.23
39789;BME280;25478;42.626;23.320;2022-09-09T01:53:29;93368.81;;;15.43;92.33
39789;BME280;25478;42.626;23.320;2022-09-09T02:02:03;93365.91;;;15.34;92.53
39789;BME280;25478;42.626;23.320;2022-09-09T02:09:58;93362.53;;;15.30;92.91
39789;BME280;25478;42.626;23.320;2022-09-09T02:12:27;93357.63;;;15.28;92.84
39789;BME280;25478;42.626;23.320;2022-09-09T02:15:02;93363.72;;;15.25;93.37
39789;BME280;25478;42.626;23.320;2022-09-09T02:17:37;93354.28;;;15.20;93.39
39789;BME280;25478;42.626;23.320;2022-09-09T02:20:12;93348.25;;;15.20;93.30
39789;BME280;25478;42.626;23.320;2022-09-09T02:22:47;93341.44;;;15.19;93.66
39789;BME280;25478;42.626;23.320;2022-09-09T02:25:20;93340.69;;;15.18;93.83
39789;BME280;25478;42.626;23.320;2022-09-09T02:27:50;93338.44;;;15.17;94.03
39789;BME280;25478;42.626;23.320;2022-09-09T02:30:17;93320.38;;;15.05;93.68
39789;BME280;25478;42.626;23.320;2022-09-09T02:32:50;93342.66;;;15.11;93.97
39789;BME280;25478;42.626;23.320;2022-09-09T02:35:21;93345.34;;;15.07;93.90
39789;BME280;25478;42.626;23.320;2022-09-09T02:37:48;93328.09;;;14.92;94.09
39789;BME280;25478;42.626;23.320;2022-09-09T02:40:16;93355.63;;;15.02;94.37
39789;BME280;25478;42.626;23.320;2022-09-09T02:42:47;93355.28;;;15.00;94.46
39789;BME280;25478;42.626;23.320;2022-09-09T02:45:17;93363.22;;;15.00;94.85
39789;BME280;25478;42.626;23.320;2022-09-09T02:53:30;93363.66;;;14.95;94.88
39789;BME280;25478;42.626;23.320;2022-09-09T02:58:31;93365.25;;;14.88;94.75
39789;BME280;25478;42.626;23.320;2022-09-09T03:01:01;93346.41;;;14.76;94.84
39789;BME280;25478;42.626;23.320;2022-09-09T03:03:29;93358.47;;;14.84;95.17
39789;BME280;25478;42.626;23.320;2022-09-09T03:05:56;93353.16;;;14.84;95.32
39789;BME280;25478;42.626;23.320;2022-09-09T03:08:22;93354.31;;;14.83;95.62
39789;BME280;25478;42.626;23.320;2022-09-09T03:10:48;93360.75;;;14.82;95.65
39789;BME280;25478;42.626;23.320;2022-09-09T03:13:15;93366.44;;;14.80;95.87
39789;BME280;25478;42.626;23.320;2022-09-09T03:15:41;93357.47;;;14.67;95.35
39789;BME280;25478;42.626;23.320;2022-09-09T03:18:11;93371.03;;;14.76;95.78
39789;BME280;25478;42.626;23.320;2022-09-09T03:20:36;93376.72;;;14.75;96.21
39789;BME280;25478;42.626;23.320;2022-09-09T03:23:02;93356.72;;;14.67;95.99
39789;BME280;25478;42.626;23.320;2022-09-09T03:25:28;93372.22;;;14.72;96.47
39789;BME280;25478;42.626;23.320;2022-09-09T03:27:55;93369.94;;;14.70;96.24
39789;BME280;25478;42.626;23.320;2022-09-09T03:30:23;93365.78;;;14.69;96.38
39789;BME280;25478;42.626;23.320;2022-09-09T03:32:49;93369.97;;;14.67;96.64
39789;BME280;25478;42.626;23.320;2022-09-09T03:35:15;93373.00;;;14.65;96.70
39789;BME280;25478;42.626;23.320;2022-09-09T03:37:41;93361.69;;;14.61;96.65
39789;BME280;25478;42.626;23.320;2022-09-09T03:40:09;93368.88;;;14.60;96.87
39789;BME280;25478;42.626;23.320;2022-09-09T03:42:36;93364.72;;;14.59;96.75
39789;BME280;25478;42.626;23.320;2022-09-09T03:45:04;93360.56;;;14.58;96.95
39789;BME280;25478;42.626;23.320;2022-09-09T03:47:30;93358.31;;;14.57;97.07
39789;BME280;25478;42.626;23.320;2022-09-09T03:50:03;93360.97;;;14.57;96.75
39789;BME280;25478;42.626;23.320;2022-09-09T03:52:31;93358.31;;;14.57;97.25
39789;BME280;25478;42.626;23.320;2022-09-09T03:54:59;93360.97;;;14.57;96.89
39789;BME280;25478;42.626;23.320;2022-09-09T03:57:24;93365.13;;;14.58;97.18
39789;BME280;25478;42.626;23.320;2022-09-09T03:59:50;93343.63;;;14.49;97.21
39789;BME280;25478;42.626;23.320;2022-09-09T04:02:15;93359.44;;;14.59;97.33
39789;BME280;25478;42.626;23.320;2022-09-09T04:04:41;93365.47;;;14.60;97.32
39789;BME280;25478;42.626;23.320;2022-09-09T04:07:07;93370.00;;;14.63;97.24
39789;BME280;25478;42.626;23.320;2022-09-09T04:09:33;93367.72;;;14.65;97.05
39789;BME280;25478;42.626;23.320;2022-09-09T04:11:58;93369.22;;;14.66;97.09
39789;BME280;25478;42.626;23.320;2022-09-09T04:14:25;93375.28;;;14.67;96.99
39789;BME280;25478;42.626;23.320;2022-09-09T04:16:54;93369.22;;;14.66;97.13
39789;BME280;25478;42.626;23.320;2022-09-09T04:19:20;93370.31;;;14.69;97.00
39789;BME280;25478;42.626;23.320;2022-09-09T04:21:46;93349.22;;;14.58;96.89
39789;BME280;25478;42.626;23.320;2022-09-09T04:24:15;93358.91;;;14.75;97.28
39789;BME280;25478;42.626;23.320;2022-09-09T04:26:41;93362.25;;;14.83;97.14
39789;BME280;25478;42.626;23.320;2022-09-09T04:29:07;93358.03;;;14.89;96.78
39789;BME280;25478;42.626;23.320;2022-09-09T04:31:33;93362.47;;;14.99;96.48
39789;BME280;25478;42.626;23.320;2022-09-09T04:34:00;93373.03;;;15.06;96.01
39789;BME280;25478;42.626;23.320;2022-09-09T04:36:32;93369.91;;;15.11;96.11
39789;BME280;25478;42.626;23.320;2022-09-09T04:39:00;93357.88;;;15.07;95.94
39789;BME280;25478;42.626;23.320;2022-09-09T04:41:27;93374.34;;;15.21;95.83
39789;BME280;25478;42.626;23.320;2022-09-09T04:43:53;93386.03;;;15.28;95.56
39789;BME280;25478;42.626;23.320;2022-09-09T04:46:21;93385.28;;;15.31;95.49
39789;BME280;25478;42.626;23.320;2022-09-09T04:48:49;93375.47;;;15.24;95.07
39789;BME280;25478;42.626;23.320;2022-09-09T04:51:15;93373.03;;;15.40;94.90
39789;BME280;25478;42.626;23.320;2022-09-09T04:53:43;93360.78;;;15.50;94.54
39789;BME280;25478;42.626;23.320;2022-09-09T04:56:15;93352.72;;;15.61;94.16
39789;BME280;25478;42.626;23.320;2022-09-09T04:58:47;93349.56;;;15.73;93.70
39789;BME280;25478;42.626;23.320;2022-09-09T05:01:19;93349.31;;;15.91;93.04
39789;BME280;25478;42.626;23.320;2022-09-09T05:03:46;93351.75;;;16.05;92.27
39789;BME280;25478;42.626;23.320;2022-09-09T05:06:18;93346.66;;;16.18;91.77
39789;BME280;25478;42.626;23.320;2022-09-09T05:08:47;93335.00;;;16.35;91.35
39789;BME280;25478;42.626;23.320;2022-09-09T05:11:20;93329.81;;;16.51;90.22
39789;BME280;25478;42.626;23.320;2022-09-09T05:13:48;93328.00;;;16.68;89.30
39789;BME280;25478;42.626;23.320;2022-09-09T05:16:17;93322.53;;;16.79;88.28
39789;BME280;25478;42.626;23.320;2022-09-09T05:18:44;93353.13;;;17.10;87.32
39789;BME280;25478;42.626;23.320;2022-09-09T05:21:14;93353.13;;;17.30;86.20
39789;BME280;25478;42.626;23.320;2022-09-09T05:23:40;93348.22;;;17.49;84.81
39789;BME280;25478;42.626;23.320;2022-09-09T05:26:07;93338.38;;;17.65;83.67
39789;BME280;25478;42.626;23.320;2022-09-09T05:28:35;93340.38;;;17.81;83.15
39789;BME280;25478;42.626;23.320;2022-09-09T05:31:03;93343.47;;;17.96;82.41
39789;BME280;25478;42.626;23.320;2022-09-09T05:33:31;93342.00;;;18.11;81.64
39789;BME280;25478;42.626;23.320;2022-09-09T05:36:00;93339.44;;;18.24;80.88
39789;BME280;25478;42.626;23.320;2022-09-09T05:38:27;93343.38;;;18.36;78.99
39789;BME280;25478;42.626;23.320;2022-09-09T05:40:53;93343.03;;;18.50;78.25
39789;BME280;25478;42.626;23.320;2022-09-09T05:43:19;93345.22;;;18.71;77.31
39789;BME280;25478;42.626;23.320;2022-09-09T05:45:47;93346.25;;;18.90;76.42
39789;BME280;25478;42.626;23.320;2022-09-09T05:48:14;93355.25;;;18.96;76.15
39789;BME280;25478;42.626;23.320;2022-09-09T05:50:43;93358.75;;;19.09;75.43
39789;BME280;25478;42.626;23.320;2022-09-09T05:53:17;93353.03;;;19.24;74.45
39789;BME280;25478;42.626;23.320;2022-09-09T05:55:43;93355.22;;;19.41;73.68
39789;BME280;25478;42.626;23.320;2022-09-09T05:58:10;93347.69;;;19.53;73.65
39789;BME280;25478;42.626;23.320;2022-09-09T06:00:36;93350.50;;;19.62;72.67
39789;BME280;25478;42.626;23.320;2022-09-09T06:03:03;93348.69;;;19.72;71.98
39789;BME280;25478;42.626;23.320;2022-09-09T06:05:29;93359.50;;;19.81;71.28
39789;BME280;25478;42.626;23.320;2022-09-09T06:07:56;93366.25;;;19.85;71.09
39789;BME280;25478;42.626;23.320;2022-09-09T06:10:22;93369.56;;;19.89;70.53
39789;BME280;25478;42.626;23.320;2022-09-09T06:12:48;93378.13;;;19.97;70.33
39789;BME280;25478;42.626;23.320;2022-09-09T06:15:13;93380.28;;;20.02;69.37
39789;BME280;25478;42.626;23.320;2022-09-09T06:17:39;93374.81;;;20.06;69.83
39789;BME280;25478;42.626;23.320;2022-09-09T06:20:07;93369.06;;;20.20;69.81
39789;BME280;25478;42.626;23.320;2022-09-09T06:22:34;93370.34;;;20.41;69.02
39789;BME280;25478;42.626;23.320;2022-09-09T06:25:00;93376.16;;;20.52;67.50
39789;BME280;25478;42.626;23.320;2022-09-09T06:27:27;93366.06;;;20.56;66.92
39789;BME280;25478;42.626;23.320;2022-09-09T06:29:54;93357.53;;;20.48;66.77
39789;BME280;25478;42.626;23.320;2022-09-09T06:32:19;93363.72;;;20.58;66.38
39789;BME280;25478;42.626;23.320;2022-09-09T06:34:45;93367.47;;;20.61;65.99
39789;BME280;25478;42.626;23.320;2022-09-09T06:37:12;93364.56;;;20.68;65.70
39789;BME280;25478;42.626;23.320;2022-09-09T06:39:44;93357.47;;;20.74;65.59
39789;BME280;25478;42.626;23.320;2022-09-09T06:42:09;93355.88;;;20.76;64.99
39789;BME280;25478;42.626;23.320;2022-09-09T06:44:53;93352.66;;;20.82;64.67
39789;BME280;25478;42.626;23.320;2022-09-09T06:47:36;93361.72;;;20.97;64.50
39789;BME280;25478;42.626;23.320;2022-09-09T06:50:02;93361.66;;;21.09;64.31
39789;BME280;25478;42.626;23.320;2022-09-09T06:52:31;93369.91;;;21.28;63.64
39789;BME280;25478;42.626;23.320;2022-09-09T06:54:58;93371.72;;;21.53;62.21
39789;BME280;25478;42.626;23.320;2022-09-09T06:57:24;93368.53;;;21.67;61.89
39789;BME280;25478;42.626;23.320;2022-09-09T06:59:50;93379.28;;;21.76;61.38
39789;BME280;25478;42.626;23.320;2022-09-09T07:02:16;93376.31;;;21.74;60.67
39789;BME280;25478;42.626;23.320;2022-09-09T07:04:42;93383.00;;;21.70;61.07
39789;BME280;25478;42.626;23.320;2022-09-09T07:07:08;93376.31;;;21.74;61.47
39789;BME280;25478;42.626;23.320;2022-09-09T07:09:36;93369.38;;;21.86;61.24
39789;BME280;25478;42.626;23.320;2022-09-09T07:12:01;93382.06;;;22.16;59.97
39789;BME280;25478;42.626;23.320;2022-09-09T07:14:30;93380.09;;;22.39;59.54
39789;BME280;25478;42.626;23.320;2022-09-09T07:16:59;93374.97;;;22.63;58.91
39789;BME280;25478;42.626;23.320;2022-09-09T07:19:29;93383.34;;;22.83;57.94
39789;BME280;25478;42.626;23.320;2022-09-09T07:21:55;93377.25;;;22.83;57.85
39789;BME280;25478;42.626;23.320;2022-09-09T07:24:22;93376.25;;;22.89;56.82
39789;BME280;25478;42.626;23.320;2022-09-09T07:26:49;93377.00;;;22.90;56.42
39789;BME280;25478;42.626;23.320;2022-09-09T07:29:15;93363.56;;;22.99;56.51
39789;BME280;25478;42.626;23.320;2022-09-09T07:31:42;93366.72;;;23.07;56.29
39789;BME280;25478;42.626;23.320;2022-09-09T07:34:12;93368.06;;;23.11;56.49
39789;BME280;25478;42.626;23.320;2022-09-09T07:36:39;93364.78;;;23.07;55.74
39789;BME280;25478;42.626;23.320;2022-09-09T07:39:12;93363.75;;;23.05;55.37
39789;BME280;25478;42.626;23.320;2022-09-09T07:41:48;93366.09;;;23.02;55.39
39789;BME280;25478;42.626;23.320;2022-09-09T07:44:19;93367.59;;;22.94;55.10
39789;BME280;25478;42.626;23.320;2022-09-09T07:46:49;93378.78;;;23.02;55.25
39789;BME280;25478;42.626;23.320;2022-09-09T07:49:19;93375.22;;;23.05;55.02
39789;BME280;25478;42.626;23.320;2022-09-09T07:51:46;93382.53;;;23.05;54.64
39789;BME280;25478;42.626;23.320;2022-09-09T07:54:16;93384.63;;;23.10;54.82
39789;BME280;25478;42.626;23.320;2022-09-09T07:56:44;93374.94;;;23.21;54.40
39789;BME280;25478;42.626;23.320;2022-09-09T07:59:11;93377.00;;;23.26;54.16
39789;BME280;25478;42.626;23.320;2022-09-09T08:01:59;93379.69;;;23.36;54.48
39789;BME280;25478;42.626;23.320;2022-09-09T08:04:27;93380.88;;;23.53;54.15
39789;BME280;25478;42.626;23.320;2022-09-09T08:06:56;93375.97;;;23.70;53.21
39789;BME280;25478;42.626;23.320;2022-09-09T08:09:24;93383.75;;;23.77;53.38
39789;BME280;25478;42.626;23.320;2022-09-09T08:11:52;93374.34;;;23.72;53.67
39789;BME280;25478;42.626;23.320;2022-09-09T08:14:18;93364.34;;;23.64;53.75
39789;BME280;25478;42.626;23.320;2022-09-09T08:16:47;93379.84;;;23.78;53.07
39789;BME280;25478;42.626;23.320;2022-09-09T08:19:16;93367.31;;;23.75;53.35
39789;BME280;25478;42.626;23.320;2022-09-09T08:21:44;93377.47;;;23.89;53.55
39789;BME280;25478;42.626;23.320;2022-09-09T08:24:11;93376.09;;;23.94;53.45
39789;BME280;25478;42.626;23.320;2022-09-09T08:26:46;93380.59;;;23.97;53.04
39789;BME280;25478;42.626;23.320;2022-09-09T08:29:14;93381.19;;;23.92;52.56
39789;BME280;25478;42.626;23.320;2022-09-09T08:31:52;93369.06;;;23.87;52.67
39789;BME280;25478;42.626;23.320;2022-09-09T08:34:20;93368.63;;;23.79;51.68
39789;BME280;25478;42.626;23.320;2022-09-09T08:36:49;93370.03;;;23.66;51.88
39789;BME280;25478;42.626;23.320;2022-09-09T08:39:19;93368.66;;;23.70;51.89
39789;BME280;25478;42.626;23.320;2022-09-09T08:44:39;93378.66;;;23.79;52.83
39789;BME280;25478;42.626;23.320;2022-09-09T08:50:26;93366.31;;;23.63;52.60
39789;BME280;25478;42.626;23.320;2022-09-09T08:53:00;93372.25;;;23.67;53.27
39789;BME280;25478;42.626;23.320;2022-09-09T08:58:08;93377.03;;;23.81;52.47
39789;BME280;25478;42.626;23.320;2022-09-09T09:09:06;93362.41;;;24.34;50.71
39789;BME280;25478;42.626;23.320;2022-09-09T09:11:36;93350.72;;;24.37;50.63
39789;BME280;25478;42.626;23.320;2022-09-09T09:14:13;93371.41;;;24.55;50.58
39789;BME280;25478;42.626;23.320;2022-09-09T09:17:00;93355.13;;;24.58;50.46
39789;BME280;25478;42.626;23.320;2022-09-09T09:19:28;93348.81;;;24.61;50.28
39789;BME280;25478;42.626;23.320;2022-09-09T09:22:18;93357.19;;;24.87;50.04
39789;BME280;25478;42.626;23.320;2022-09-09T09:27:38;93357.44;;;24.98;49.15
39789;BME280;25478;42.626;23.320;2022-09-09T09:30:16;93359.66;;;25.00;48.04
39789;BME280;25478;42.626;23.320;2022-09-09T09:33:46;93373.59;;;24.98;47.75
39789;BME280;25478;42.626;23.320;2022-09-09T09:35:52;93356.44;;;24.87;47.66
39789;BME280;25478;42.626;23.320;2022-09-09T09:38:23;93360.53;;;24.82;47.28
39789;BME280;25478;42.626;23.320;2022-09-09T09:40:54;93363.78;;;24.86;47.36
39789;BME280;25478;42.626;23.320;2022-09-09T09:43:30;93359.72;;;24.91;47.60
39789;BME280;25478;42.626;23.320;2022-09-09T09:45:59;93352.13;;;24.89;47.88
39789;BME280;25478;42.626;23.320;2022-09-09T09:48:26;93346.53;;;24.93;47.56
39789;BME280;25478;42.626;23.320;2022-09-09T09:51:09;93339.09;;;24.88;46.78
39789;BME280;25478;42.626;23.320;2022-09-09T09:53:38;93345.41;;;24.85;47.26
39789;BME280;25478;42.626;23.320;2022-09-09T09:56:09;93350.78;;;24.85;47.02
39789;BME280;25478;42.626;23.320;2022-09-09T09:58:49;93341.97;;;24.84;47.43
39789;BME280;25478;42.626;23.320;2022-09-09T10:01:23;93334.91;;;24.87;47.23
39789;BME280;25478;42.626;23.320;2022-09-09T10:03:52;93344.78;;;24.90;46.83
39789;BME280;25478;42.626;23.320;2022-09-09T10:06:30;93341.88;;;25.03;46.93
39789;BME280;25478;42.626;23.320;2022-09-09T10:08:56;93341.41;;;25.04;46.24
39789;BME280;25478;42.626;23.320;2022-09-09T10:11:29;93345.47;;;24.99;46.53
39789;BME280;25478;42.626;23.320;2022-09-09T10:19:33;93346.81;;;24.71;47.22
39789;BME280;25478;42.626;23.320;2022-09-09T10:32:41;93360.19;;;24.23;48.03
39789;BME280;25478;42.626;23.320;2022-09-09T10:40:38;93357.06;;;24.15;48.82
39789;BME280;25478;42.626;23.320;2022-09-09T10:54:41;93371.44;;;24.03;50.18
39789;BME280;25478;42.626;23.320;2022-09-09T10:59:57;93356.06;;;23.95;49.98
39789;BME280;25478;42.626;23.320;2022-09-09T11:02:29;93358.31;;;23.96;50.56
39789;BME280;25478;42.626;23.320;2022-09-09T11:05:03;93363.38;;;23.94;51.01
39789;BME280;25478;42.626;23.320;2022-09-09T11:07:42;93364.59;;;23.93;51.63
39789;BME280;25478;42.626;23.320;2022-09-09T11:10:23;93347.03;;;23.74;52.45
39789;BME280;25478;42.626;23.320;2022-09-09T11:12:53;93369.97;;;23.93;52.81
39789;BME280;25478;42.626;23.320;2022-09-09T11:15:31;93371.47;;;23.94;52.74
39789;BME280;25478;42.626;23.320;2022-09-09T11:18:01;93356.97;;;23.92;51.30
39789;BME280;25478;42.626;23.320;2022-09-09T11:20:29;93363.84;;;23.93;50.86
39789;BME280;25478;42.626;23.320;2022-09-09T11:22:59;93355.00;;;24.01;51.17
39789;BME280;25478;42.626;23.320;2022-09-09T11:25:34;93344.97;;;24.11;50.97
39789;BME280;25478;42.626;23.320;2022-09-09T11:33:30;93324.00;;;24.33;50.57
39789;BME280;25478;42.626;23.320;2022-09-09T11:38:45;93310.69;;;24.39;50.02
39789;BME280;25478;42.626;23.320;2022-09-09T11:41:14;93324.28;;;24.35;49.78
39789;BME280;25478;42.626;23.320;2022-09-09T11:43:45;93304.25;;;24.27;50.00
39789;BME280;25478;42.626;23.320;2022-09-09T11:46:14;93310.81;;;24.35;50.59
39789;BME280;25478;42.626;23.320;2022-09-09T11:48:45;93295.72;;;24.38;50.26
39789;BME280;25478;42.626;23.320;2022-09-09T11:51:12;93271.34;;;24.41;50.23
39789;BME280;25478;42.626;23.320;2022-09-09T11:56:30;93265.31;;;24.47;51.17
39789;BME280;25478;42.626;23.320;2022-09-09T12:04:21;93292.41;;;24.67;50.72
39789;BME280;25478;42.626;23.320;2022-09-09T12:06:56;93295.66;;;24.71;50.10
39789;BME280;25478;42.626;23.320;2022-09-09T12:12:17;93280.09;;;24.75;50.01
39789;BME280;25478;42.626;23.320;2022-09-09T12:17:31;93269.53;;;24.86;49.72
39789;BME280;25478;42.626;23.320;2022-09-09T12:20:08;93269.66;;;24.92;49.56
39789;BME280;25478;42.626;23.320;2022-09-09T12:28:47;93260.81;;;25.15;49.29
39789;BME280;25478;42.626;23.320;2022-09-09T12:34:14;93254.78;;;25.20;49.76
39789;BME280;25478;42.626;23.320;2022-09-09T12:36:42;93253.66;;;25.12;49.41
39789;BME280;25478;42.626;23.320;2022-09-09T12:39:20;93241.75;;;25.04;49.54
39789;BME280;25478;42.626;23.320;2022-09-09T12:41:54;93227.50;;;24.89;50.09
39789;BME280;25478;42.626;23.320;2022-09-09T12:44:25;93245.16;;;24.90;50.03
39789;BME280;25478;42.626;23.320;2022-09-09T12:46:53;93246.06;;;24.87;50.41
39789;BME280;25478;42.626;23.320;2022-09-09T12:49:35;93255.63;;;24.88;50.71
39789;BME280;25478;42.626;23.320;2022-09-09T12:52:08;93250.53;;;24.90;50.25
39789;BME280;25478;42.626;23.320;2022-09-09T12:54:44;93220.69;;;24.79;50.43
39789;BME280;25478;42.626;23.320;2022-09-09T12:57:12;93245.16;;;24.90;50.37
39789;BME280;25478;42.626;23.320;2022-09-09T12:59:41;93232.34;;;24.99;50.20
39789;BME280;25478;42.626;23.320;2022-09-09T13:02:25;93220.31;;;25.10;50.04
39789;BME280;25478;42.626;23.320;2022-09-09T13:04:51;93218.16;;;25.14;49.76
39789;BME280;25478;42.626;23.320;2022-09-09T13:07:18;93231.19;;;25.15;49.56
39789;BME280;25478;42.626;23.320;2022-09-09T13:09:46;93224.69;;;25.07;49.44
39789;BME280;25478;42.626;23.320;2022-09-09T13:12:19;93214.50;;;25.02;49.98
39789;BME280;25478;42.626;23.320;2022-09-09T13:14:53;93226.06;;;25.03;49.95
39789;BME280;25478;42.626;23.320;2022-09-09T13:17:23;93218.25;;;25.05;49.94
39789;BME280;25478;42.626;23.320;2022-09-09T13:19:50;93220.31;;;25.10;49.91
39789;BME280;25478;42.626;23.320;2022-09-09T13:22:37;93202.47;;;25.12;49.80
39789;BME280;25478;42.626;23.320;2022-09-09T13:27:38;93202.38;;;25.21;49.49
39789;BME280;25478;42.626;23.320;2022-09-09T13:30:20;93197.09;;;25.27;50.35
39789;BME280;25478;42.626;23.320;2022-09-09T13:33:34;93196.72;;;25.19;50.52
39789;BME280;25478;42.626;23.320;2022-09-09T13:35:36;93203.44;;;25.24;49.64
39789;BME280;25478;42.626;23.320;2022-09-09T13:38:15;93193.84;;;25.23;49.81
39789;BME280;25478;42.626;23.320;2022-09-09T13:41:02;93190.88;;;25.21;50.12
39789;BME280;25478;42.626;23.320;2022-09-09T13:43:37;93194.50;;;25.18;50.35
39789;BME280;25478;42.626;23.320;2022-09-09T13:46:20;93175.06;;;25.14;51.00
39789;BME280;25478;42.626;23.320;2022-09-09T13:49:18;93180.84;;;25.21;50.39
39789;BME280;25478;42.626;23.320;2022-09-09T13:51:47;93178.59;;;25.20;49.83
39789;BME280;25478;42.626;23.320;2022-09-09T13:54:16;93180.75;;;25.16;49.69
39789;BME280;25478;42.626;23.320;2022-09-09T13:56:43;93173.88;;;25.15;49.51
39789;BME280;25478;42.626;23.320;2022-09-09T13:59:12;93171.94;;;25.15;49.18
39789;BME280;25478;42.626;23.320;2022-09-09T14:01:38;93183.44;;;25.16;49.65
39789;BME280;25478;42.626;23.320;2022-09-09T14:04:03;93181.50;;;25.16;49.78
39789;BME280;25478;42.626;23.320;2022-09-09T14:06:32;93187.91;;;25.19;49.39
39789;BME280;25478;42.626;23.320;2022-09-09T14:08:58;93188.16;;;25.21;49.69
39789;BME280;25478;42.626;23.320;2022-09-09T14:11:24;93184.56;;;25.24;49.77
39789;BME280;25478;42.626;23.320;2022-09-09T14:13:49;93182.41;;;25.28;49.94
39789;BME280;25478;42.626;23.320;2022-09-09T14:16:16;93183.44;;;25.31;50.43
39789;BME280;25478;42.626;23.320;2022-09-09T14:18:43;93161.59;;;25.14;50.68
39789;BME280;25478;42.626;23.320;2022-09-09T14:21:09;93168.94;;;25.13;50.46
39789;BME280;25478;42.626;23.320;2022-09-09T14:23:35;93166.03;;;25.02;50.59
39789;BME280;25478;42.626;23.320;2022-09-09T14:26:01;93179.59;;;24.93;51.12
39789;BME280;25478;42.626;23.320;2022-09-09T14:28:26;93176.44;;;24.94;51.10
39789;BME280;25478;42.626;23.320;2022-09-09T14:30:53;93170.41;;;24.99;51.62
39789;BME280;25478;42.626;23.320;2022-09-09T14:33:19;93171.84;;;25.10;51.56
39789;BME280;25478;42.626;23.320;2022-09-09T14:35:44;93173.97;;;25.20;51.09
39789;BME280;25478;42.626;23.320;2022-09-09T14:38:10;93169.31;;;25.21;50.79
39789;BME280;25478;42.626;23.320;2022-09-09T14:40:36;93173.41;;;25.16;50.13
39789;BME280;25478;42.626;23.320;2022-09-09T14:43:03;93162.44;;;25.05;50.14
39789;BME280;25478;42.626;23.320;2022-09-09T14:45:30;93154.53;;;25.02;50.05
39789;BME280;25478;42.626;23.320;2022-09-09T14:47:55;93140.50;;;24.97;49.73
39789;BME280;25478;42.626;23.320;2022-09-09T14:50:22;93155.47;;;24.98;50.74
39789;BME280;25478;42.626;23.320;2022-09-09T14:52:48;93160.38;;;25.00;50.67
39789;BME280;25478;42.626;23.320;2022-09-09T14:55:14;93153.69;;;24.95;50.74
39789;BME280;25478;42.626;23.320;2022-09-09T14:57:40;93163.06;;;24.85;50.81
39789;BME280;25478;42.626;23.320;2022-09-09T15:00:07;93176.03;;;24.72;51.30
39789;BME280;25478;42.626;23.320;2022-09-09T15:02:33;93180.47;;;24.60;52.24
39789;BME280;25478;42.626;23.320;2022-09-09T15:04:59;93171.91;;;24.47;51.68
39789;BME280;25478;42.626;23.320;2022-09-09T15:07:25;93174.09;;;24.34;52.28
39789;BME280;25478;42.626;23.320;2022-09-09T15:09:52;93182.66;;;24.23;53.40
39789;BME280;25478;42.626;23.320;2022-09-09T15:12:18;93185.84;;;24.12;54.90
39789;BME280;25478;42.626;23.320;2022-09-09T15:14:45;93179.81;;;23.94;55.96
39789;BME280;25478;42.626;23.320;2022-09-09T15:17:11;93194.06;;;23.85;56.39
39789;BME280;25478;42.626;23.320;2022-09-09T15:19:37;93190.38;;;23.73;57.46
39789;BME280;25478;42.626;23.320;2022-09-09T15:22:03;93179.38;;;23.53;59.08
39789;BME280;25478;42.626;23.320;2022-09-09T15:24:34;93185.66;;;23.50;59.38
39789;BME280;25478;42.626;23.320;2022-09-09T15:27:00;93181.53;;;23.40;60.95
39789;BME280;25478;42.626;23.320;2022-09-09T15:29:26;93168.44;;;23.23;61.59
39789;BME280;25478;42.626;23.320;2022-09-09T15:31:53;93181.09;;;23.32;62.27